createdAt,value
2019-01-19T00:00:09.873Z,69.61
2019-01-19T00:02:41.432Z,70.24
2019-01-19T00:05:35.046Z,71.09
2019-01-19T00:08:06.562Z,70.45
2019-01-19T00:11:08.738Z,72.13
2019-01-19T00:13:45.651Z,73.73
2019-01-19T00:16:19.886Z,74.76
2019-01-19T00:18:54.362Z,75.52
2019-01-19T00:21:40.799Z,75.24
2019-01-19T00:24:12.290Z,74.87
2019-01-19T00:26:49.015Z,71.35
2019-01-19T00:29:29.357Z,73.02
2019-01-19T00:32:06.437Z,70.94
2019-01-19T00:34:40.622Z,69.57
2019-01-19T00:37:12.238Z,70.64
2019-01-19T00:40:09.041Z,100.00
2019-01-19T00:42:40.839Z,100.00
2019-01-19T00:45:12.349Z,100.00
2019-01-19T00:47:43.845Z,100.00
2019-01-19T00:50:15.318Z,100.00
2019-01-19T00:52:47.162Z,100.00
2019-01-19T00:55:24.387Z,100.00
2019-01-19T00:58:10.914Z,100.00
2019-01-19T01:00:45.201Z,100.00
2019-01-19T01:03:25.300Z,100.00
2019-01-19T01:06:11.960Z,100.00
2019-01-19T01:09:05.722Z,100.00
2019-01-19T01:11:37.201Z,100.00
2019-01-19T01:14:11.481Z,100.00
2019-01-19T01:16:42.968Z,100.00
2019-01-19T01:19:17.367Z,100.00
2019-01-19T01:21:51.840Z,100.00
2019-01-19T01:24:46.909Z,100.00
2019-01-19T01:27:27.411Z,100.00
2019-01-19T01:30:19.496Z,100.00
2019-01-19T01:33:12.144Z,100.00
2019-01-19T01:36:11.725Z,100.00
2019-01-19T01:38:58.083Z,100.00
2019-01-19T01:41:41.612Z,100.00
2019-01-19T01:44:19.307Z,100.00
2019-01-19T01:47:06.948Z,100.00
2019-01-19T01:49:41.151Z,100.00
2019-01-19T01:52:34.594Z,100.00
2019-01-19T01:55:18.136Z,100.00
2019-01-19T01:57:49.639Z,100.00
2019-01-19T02:00:26.915Z,100.00
2019-01-19T02:03:00.906Z,91.12
2019-01-19T02:05:44.184Z,100.00
2019-01-19T02:08:24.546Z,100.00
2019-01-19T02:11:05.102Z,100.00
2019-01-19T02:13:55.740Z,100.00
2019-01-19T02:16:47.126Z,100.00
2019-01-19T02:19:30.711Z,100.00
2019-01-19T02:22:17.415Z,100.00
2019-01-19T02:25:22.144Z,100.00
2019-01-19T02:28:11.601Z,100.00
2019-01-19T02:30:55.634Z,100.00
2019-01-19T02:33:33.078Z,100.00
2019-01-19T02:36:04.723Z,100.00
2019-01-19T02:38:36.200Z,100.00
2019-01-19T02:41:24.567Z,100.00
2019-01-19T02:43:56.519Z,100.00
2019-01-19T02:46:31.277Z,100.00
2019-01-19T02:49:15.287Z,100.00
2019-01-19T02:51:46.867Z,100.00
2019-01-19T02:54:42.268Z,100.00
2019-01-19T02:57:19.321Z,100.00
2019-01-19T02:59:56.502Z,100.00
2019-01-19T03:02:33.600Z,100.00
2019-01-19T03:05:05.079Z,100.00
2019-01-19T03:07:36.585Z,100.00
2019-01-19T03:10:22.972Z,100.00
2019-01-19T03:13:06.426Z,100.00
2019-01-19T03:16:01.897Z,100.00
2019-01-19T03:18:36.342Z,100.00
2019-01-19T03:21:33.431Z,100.00
2019-01-19T03:24:13.889Z,100.00
2019-01-19T03:26:51.134Z,100.00
2019-01-19T03:29:22.642Z,100.00
2019-01-19T03:32:11.982Z,100.00
2019-01-19T03:35:01.309Z,100.00
2019-01-19T03:37:50.998Z,100.00
2019-01-19T03:40:40.597Z,100.00
2019-01-19T03:43:37.644Z,100.00
2019-01-19T03:46:30.405Z,100.00
2019-01-19T03:49:13.904Z,100.00
2019-01-19T03:51:54.393Z,100.00
2019-01-19T03:54:25.890Z,100.00
2019-01-19T03:57:09.212Z,100.00
2019-01-19T03:59:46.394Z,100.00
2019-01-19T04:02:23.886Z,100.00
2019-01-19T04:05:27.019Z,100.00
2019-01-19T04:08:15.121Z,100.00
2019-01-19T04:10:49.434Z,100.00
2019-01-19T04:13:33.046Z,100.00
2019-01-19T04:16:16.372Z,100.00
2019-01-19T04:19:02.707Z,98.53
2019-01-19T04:21:40.070Z,100.00
2019-01-19T04:24:14.143Z,100.00
2019-01-19T04:26:42.525Z,100.00
2019-01-19T04:29:10.844Z,100.00
2019-01-19T04:31:39.259Z,100.00
2019-01-19T04:34:08.008Z,100.00
2019-01-19T04:36:37.003Z,100.00
2019-01-19T04:39:09.170Z,100.00
2019-01-19T04:41:37.945Z,100.00
2019-01-19T04:44:06.529Z,100.00
2019-01-19T04:46:34.858Z,100.00
2019-01-19T04:49:03.511Z,100.00
2019-01-19T04:51:31.862Z,100.00
2019-01-19T04:54:00.471Z,100.00
2019-01-19T04:56:28.836Z,100.00
2019-01-19T04:58:57.168Z,100.00
2019-01-19T05:01:25.817Z,100.00
2019-01-19T05:03:54.145Z,100.00
2019-01-19T05:06:30.058Z,100.00
2019-01-19T05:08:52.581Z,100.00
2019-01-19T05:11:20.900Z,100.00
2019-01-19T05:13:49.424Z,100.00
2019-01-19T05:16:17.736Z,100.00
2019-01-19T05:18:46.265Z,100.00
2019-01-19T05:21:15.234Z,94.68
2019-01-19T05:23:43.699Z,100.00
2019-01-19T05:26:12.086Z,100.00
2019-01-19T05:28:40.781Z,100.00
2019-01-19T05:31:09.161Z,100.00
2019-01-19T05:33:37.498Z,100.00
2019-01-19T05:36:06.235Z,100.00
2019-01-19T05:38:34.575Z,100.00
2019-01-19T05:41:03.304Z,100.00
2019-01-19T05:43:31.626Z,100.00
2019-01-19T05:46:00.288Z,100.00
2019-01-19T05:48:29.064Z,100.00
2019-01-19T05:50:57.374Z,100.00
2019-01-19T05:53:25.713Z,100.00
2019-01-19T05:55:54.404Z,100.00
2019-01-19T05:58:22.723Z,100.00
2019-01-19T06:00:51.036Z,100.00
2019-01-19T06:03:19.714Z,100.00
2019-01-19T06:05:48.319Z,100.00
2019-01-19T06:08:16.847Z,100.00
2019-01-19T06:10:45.329Z,100.00
2019-01-19T06:13:13.732Z,100.00
2019-01-19T06:15:42.043Z,100.00
2019-01-19T06:18:10.370Z,100.00
2019-01-19T06:20:38.673Z,100.00
2019-01-19T06:23:07.427Z,100.00
2019-01-19T06:25:35.728Z,100.00
2019-01-19T06:28:04.039Z,100.00
2019-01-19T06:30:32.437Z,100.00
2019-01-19T06:33:00.745Z,100.00
2019-01-19T06:35:29.082Z,100.00
2019-01-19T06:37:57.746Z,100.00
2019-01-19T06:40:26.093Z,100.00
2019-01-19T06:42:54.402Z,100.00
2019-01-19T06:45:24.180Z,100.00
2019-01-19T06:47:52.662Z,100.00
2019-01-19T06:50:21.343Z,100.00
2019-01-19T06:52:49.720Z,100.00
2019-01-19T06:55:21.091Z,99.53
2019-01-19T06:57:49.395Z,97.31
2019-01-19T07:00:18.740Z,97.24
2019-01-19T07:02:47.679Z,95.03
2019-01-19T07:05:16.377Z,92.08
2019-01-19T07:07:44.678Z,96.44
2019-01-19T07:10:16.085Z,90.88
2019-01-19T07:12:44.533Z,94.83
2019-01-19T07:15:14.078Z,95.42
2019-01-19T07:17:42.529Z,93.90
2019-01-19T07:20:13.596Z,94.54
2019-01-19T07:22:42.409Z,93.40
2019-01-19T07:25:11.072Z,93.00
2019-01-19T07:27:39.467Z,90.76
2019-01-19T07:30:10.965Z,75.24
2019-01-19T07:32:39.280Z,85.56
2019-01-19T07:35:08.465Z,87.81
2019-01-19T07:37:36.768Z,84.91
2019-01-19T07:40:08.597Z,85.50
2019-01-19T07:42:38.243Z,88.12
2019-01-19T07:45:09.016Z,90.66
2019-01-19T07:47:37.693Z,91.80
2019-01-19T07:50:09.430Z,94.55
2019-01-19T07:52:38.254Z,90.37
2019-01-19T07:55:09.586Z,89.11
2019-01-19T07:57:37.965Z,90.04
2019-01-19T08:00:09.479Z,89.93
2019-01-19T08:02:37.778Z,91.64
2019-01-19T08:05:08.642Z,89.39
2019-01-19T08:07:37.250Z,89.21
2019-01-19T08:10:11.938Z,88.65
2019-01-19T08:12:40.312Z,88.08
2019-01-19T08:15:20.348Z,89.50
2019-01-19T08:17:48.713Z,89.08
2019-01-19T08:20:17.107Z,87.67
2019-01-19T08:22:45.470Z,88.34
2019-01-19T08:25:14.334Z,86.48
2019-01-19T08:27:42.642Z,87.95
2019-01-19T08:30:16.734Z,77.87
2019-01-19T08:32:45.110Z,89.35
2019-01-19T08:35:15.138Z,87.34
2019-01-19T08:37:43.765Z,67.79
2019-01-19T08:40:17.650Z,81.18
2019-01-19T08:42:47.613Z,67.17
2019-01-19T08:45:17.158Z,64.93
2019-01-19T08:47:45.774Z,85.60
2019-01-19T08:50:14.142Z,57.70
2019-01-19T08:52:42.464Z,53.77
2019-01-19T08:55:11.121Z,52.25
2019-01-19T08:57:39.438Z,53.35
2019-01-19T09:00:13.564Z,55.72
2019-01-19T09:02:41.951Z,55.17
2019-01-19T09:05:11.601Z,69.22
2019-01-19T09:07:40.021Z,86.53
2019-01-19T09:10:13.860Z,90.09
2019-01-19T09:12:42.581Z,91.13
2019-01-19T09:15:16.905Z,93.14
2019-01-19T09:17:45.298Z,94.00
2019-01-19T09:20:15.963Z,90.59
2019-01-19T09:22:44.732Z,91.98
2019-01-19T09:25:14.662Z,94.50
2019-01-19T09:27:43.752Z,88.34
2019-01-19T09:30:18.154Z,91.41
2019-01-19T09:32:47.219Z,94.49
2019-01-19T09:35:15.593Z,93.45
2019-01-19T09:37:44.075Z,88.74
2019-01-19T09:40:16.935Z,93.50
2019-01-19T09:42:45.885Z,92.57
2019-01-19T09:45:16.435Z,90.95
2019-01-19T09:47:44.762Z,91.29
2019-01-19T09:50:15.985Z,91.58
2019-01-19T09:52:44.650Z,89.53
2019-01-19T09:55:13.433Z,89.36
2019-01-19T09:57:42.062Z,90.12
2019-01-19T10:00:21.785Z,88.24
2019-01-19T10:02:50.110Z,87.82
2019-01-19T10:05:23.173Z,88.02
2019-01-19T10:07:51.563Z,86.94
2019-01-19T10:10:21.308Z,86.41
2019-01-19T10:12:49.632Z,86.29
2019-01-19T10:15:20.149Z,83.89
2019-01-19T10:17:48.555Z,83.96
2019-01-19T10:20:22.633Z,83.20
2019-01-19T10:22:51.436Z,83.47
2019-01-19T10:25:19.811Z,82.61
2019-01-19T10:27:48.445Z,81.71
2019-01-19T10:30:22.571Z,81.01
2019-01-19T10:32:50.959Z,78.73
2019-01-19T10:35:19.270Z,77.78
2019-01-19T10:37:47.653Z,76.46
2019-01-19T10:40:19.760Z,76.78
2019-01-19T10:42:48.129Z,77.67
2019-01-19T10:45:22.188Z,77.41
2019-01-19T10:47:50.575Z,73.48
2019-01-19T10:50:19.382Z,74.99
2019-01-19T10:52:48.158Z,72.96
2019-01-19T10:55:19.100Z,71.42
2019-01-19T10:57:47.478Z,72.51
2019-01-19T11:00:21.727Z,71.19
2019-01-19T11:02:50.495Z,71.91
2019-01-19T11:05:19.230Z,71.33
2019-01-19T11:07:49.314Z,71.13
2019-01-19T11:10:23.503Z,69.75
2019-01-19T11:12:52.090Z,67.68
2019-01-19T11:15:20.557Z,66.34
2019-01-19T11:17:49.286Z,61.47
2019-01-19T11:20:23.171Z,61.47
2019-01-19T11:22:51.481Z,65.25
2019-01-19T11:25:19.872Z,64.44
2019-01-19T11:27:48.180Z,61.59
2019-01-19T11:30:25.179Z,64.30
2019-01-19T11:32:53.553Z,63.94
2019-01-19T11:35:21.946Z,63.30
2019-01-19T11:37:50.712Z,61.30
2019-01-19T11:40:28.312Z,61.30
2019-01-19T11:42:56.686Z,61.88
2019-01-19T11:45:25.196Z,62.54
2019-01-19T11:47:53.571Z,62.71
2019-01-19T11:50:22.818Z,63.67
2019-01-19T11:52:51.232Z,63.67
2019-01-19T11:55:21.777Z,61.48
2019-01-19T11:57:56.096Z,63.92
2019-01-19T12:00:32.939Z,63.10
2019-01-19T12:03:01.307Z,63.67
2019-01-19T12:05:29.861Z,66.71
2019-01-19T12:07:58.154Z,63.25
2019-01-19T12:10:31.350Z,65.46
2019-01-19T12:13:00.193Z,62.45
2019-01-19T12:15:29.062Z,61.18
2019-01-19T12:17:57.493Z,58.36
2019-01-19T12:20:28.718Z,58.46
2019-01-19T12:22:57.631Z,55.21
2019-01-19T12:25:26.622Z,57.08
2019-01-19T12:27:55.330Z,56.08
2019-01-19T12:30:29.397Z,57.75
2019-01-19T12:32:57.732Z,59.95
2019-01-19T12:35:26.110Z,57.77
2019-01-19T12:37:54.871Z,60.63
2019-01-19T12:40:25.518Z,59.20
2019-01-19T12:42:59.602Z,59.28
2019-01-19T12:45:36.933Z,56.21
2019-01-19T12:48:05.391Z,58.51
2019-01-19T12:50:34.061Z,57.62
2019-01-19T12:53:02.463Z,60.67
2019-01-19T12:55:30.770Z,60.84
2019-01-19T12:57:59.103Z,59.47
2019-01-19T13:00:28.745Z,57.77
2019-01-19T13:02:57.652Z,60.25
2019-01-19T13:05:35.215Z,61.87
2019-01-19T13:08:06.199Z,61.03
2019-01-19T13:10:37.754Z,60.29
2019-01-19T13:13:07.616Z,65.08
2019-01-19T13:15:47.656Z,65.38
2019-01-19T13:18:54.687Z,65.20
2019-01-19T13:21:53.634Z,66.38
2019-01-19T13:24:47.936Z,66.38
2019-01-19T13:27:28.758Z,64.19
2019-01-19T13:30:09.089Z,64.48
2019-01-19T13:32:43.140Z,64.25
2019-01-19T13:35:26.816Z,65.07
2019-01-19T13:38:15.167Z,66.46
2019-01-19T13:40:55.651Z,66.46
2019-01-19T13:43:35.853Z,63.12
2019-01-19T13:46:31.367Z,64.93
2019-01-19T13:49:17.972Z,64.25
2019-01-19T13:51:49.456Z,64.78
2019-01-19T13:54:37.312Z,64.43
2019-01-19T13:57:11.856Z,64.43
2019-01-19T13:59:55.289Z,65.63
2019-01-19T14:02:35.663Z,46.56
2019-01-19T14:05:25.048Z,44.66
2019-01-19T14:08:08.398Z,44.66
2019-01-19T14:11:04.885Z,55.37
2019-01-19T14:13:41.777Z,60.98
2019-01-19T14:16:34.069Z,59.10
2019-01-19T14:19:06.544Z,66.94
2019-01-19T14:21:53.039Z,66.94
2019-01-19T14:24:39.882Z,65.27
2019-01-19T14:27:27.567Z,60.80
2019-01-19T14:29:59.045Z,60.92
2019-01-19T14:32:45.578Z,61.21
2019-01-19T14:35:23.167Z,62.52
2019-01-19T14:38:14.629Z,65.87
2019-01-19T14:40:52.288Z,65.87
2019-01-19T14:43:40.190Z,66.01
2019-01-19T14:46:26.815Z,54.40
2019-01-19T14:49:07.278Z,54.40
2019-01-19T14:52:03.117Z,55.05
2019-01-19T14:54:49.701Z,65.73
2019-01-19T14:57:30.324Z,63.63
2019-01-19T15:00:10.844Z,63.63
2019-01-19T15:02:45.268Z,62.51
2019-01-19T15:05:34.668Z,63.68
2019-01-19T15:08:15.124Z,63.68
2019-01-19T15:10:52.377Z,67.29
2019-01-19T15:13:46.412Z,67.18
2019-01-19T15:16:27.079Z,70.43
2019-01-19T15:19:17.773Z,69.47
2019-01-19T15:21:52.345Z,71.29
2019-01-19T15:24:23.822Z,70.90
2019-01-19T15:27:22.419Z,71.58
2019-01-19T15:29:56.877Z,73.58
2019-01-19T15:32:57.120Z,74.04
2019-01-19T15:35:43.461Z,75.06
2019-01-19T15:38:31.654Z,81.23
2019-01-19T15:41:09.157Z,80.79
2019-01-19T15:43:52.194Z,81.25
2019-01-19T15:46:35.598Z,85.37
2019-01-19T15:49:22.229Z,85.35
2019-01-19T15:52:10.202Z,87.37
2019-01-19T15:54:50.954Z,89.56
2019-01-19T15:57:28.010Z,91.61
2019-01-19T16:00:02.478Z,87.14
2019-01-19T16:02:52.454Z,85.19
2019-01-19T16:05:35.548Z,85.39
2019-01-19T16:08:09.699Z,86.38
2019-01-19T16:11:02.069Z,87.30
2019-01-19T16:13:52.617Z,86.93
2019-01-19T16:16:29.951Z,89.50
2019-01-19T16:19:04.342Z,87.38
2019-01-19T16:21:41.439Z,92.22
2019-01-19T16:24:18.730Z,95.04
2019-01-19T16:27:15.733Z,94.53
2019-01-19T16:29:55.838Z,95.15
2019-01-19T16:32:51.342Z,93.21
2019-01-19T16:35:28.743Z,93.20
2019-01-19T16:38:08.810Z,93.61
2019-01-19T16:40:40.562Z,93.90
2019-01-19T16:43:12.049Z,93.75
2019-01-19T16:45:52.600Z,94.98
2019-01-19T16:48:51.416Z,97.42
2019-01-19T16:51:40.629Z,96.58
2019-01-19T16:54:19.004Z,97.73
2019-01-19T16:57:05.521Z,98.83
2019-01-19T16:59:40.329Z,99.58
2019-01-19T17:02:24.147Z,100.00
2019-01-19T17:05:16.374Z,100.00
2019-01-19T17:07:53.914Z,100.00
2019-01-19T17:10:37.654Z,100.00
2019-01-19T17:13:24.126Z,100.00
2019-01-19T17:16:19.709Z,100.00
2019-01-19T17:19:03.260Z,100.00
2019-01-19T17:21:54.103Z,100.00
2019-01-19T17:24:42.144Z,99.84
2019-01-19T17:27:19.393Z,96.14
2019-01-19T17:30:11.691Z,92.33
2019-01-19T17:33:09.668Z,92.41
2019-01-19T17:35:50.316Z,90.61
2019-01-19T17:38:27.624Z,85.90
2019-01-19T17:41:27.948Z,84.87
2019-01-19T17:44:05.245Z,85.54
2019-01-19T17:46:36.717Z,86.76
2019-01-19T17:49:17.462Z,85.36
2019-01-19T17:52:17.459Z,83.30
2019-01-19T17:55:00.741Z,84.01
2019-01-19T17:57:41.066Z,83.96
2019-01-19T18:00:21.323Z,83.40
2019-01-19T18:02:55.564Z,82.93
2019-01-19T18:05:29.859Z,83.69
2019-01-19T18:08:16.059Z,82.35
2019-01-19T18:11:05.555Z,82.20
2019-01-19T18:13:49.034Z,82.46
2019-01-19T18:16:29.645Z,82.85
2019-01-19T18:19:01.139Z,82.80
2019-01-19T18:21:35.947Z,82.55
2019-01-19T18:24:12.694Z,83.38
2019-01-19T18:26:46.892Z,84.24
2019-01-19T18:29:49.910Z,83.62
2019-01-19T18:32:25.079Z,83.19
2019-01-19T18:35:05.179Z,83.22
2019-01-19T18:37:42.371Z,84.02
2019-01-19T18:40:13.847Z,83.97
2019-01-19T18:43:03.125Z,84.55
2019-01-19T18:45:55.605Z,84.58
2019-01-19T18:48:41.952Z,84.97
2019-01-19T18:51:22.513Z,86.05
2019-01-19T18:54:15.105Z,89.76
2019-01-19T18:57:01.739Z,87.90
2019-01-19T18:59:44.978Z,88.43
2019-01-19T19:02:25.341Z,86.51
2019-01-19T19:04:56.856Z,87.60
2019-01-19T19:07:52.016Z,88.02
2019-01-19T19:10:58.181Z,88.39
2019-01-19T19:13:46.996Z,88.79
2019-01-19T19:16:24.979Z,89.09
2019-01-19T19:19:08.559Z,90.59
2019-01-19T19:22:02.824Z,91.78
2019-01-19T19:24:55.588Z,90.14
2019-01-19T19:27:48.080Z,90.27
2019-01-19T19:30:35.716Z,90.20
2019-01-19T19:33:16.183Z,90.83
2019-01-19T19:35:50.838Z,91.39
2019-01-19T19:38:31.382Z,93.41
2019-01-19T19:41:30.056Z,93.91
2019-01-19T19:44:16.610Z,92.09
2019-01-19T19:47:08.916Z,91.09
2019-01-19T19:49:43.004Z,93.45
2019-01-19T19:52:11.541Z,91.95
2019-01-19T19:54:41.636Z,92.30
2019-01-19T19:57:10.715Z,93.26
2019-01-19T19:59:39.133Z,94.10
2019-01-19T20:02:07.527Z,94.53
2019-01-19T20:04:35.921Z,93.46
2019-01-19T20:07:05.989Z,95.34
2019-01-19T20:09:34.383Z,95.58
2019-01-19T20:12:04.478Z,95.39
2019-01-19T20:14:33.173Z,93.60
2019-01-19T20:17:01.512Z,93.43
2019-01-19T20:19:29.898Z,93.43
2019-01-19T20:21:58.221Z,93.96
2019-01-19T20:24:26.606Z,94.49
2019-01-19T20:26:54.937Z,94.49
2019-01-19T20:29:23.771Z,93.30
2019-01-19T20:31:52.116Z,91.88
2019-01-19T20:34:20.504Z,92.75
2019-01-19T20:36:48.833Z,94.19
2019-01-19T20:39:17.152Z,95.66
2019-01-19T20:41:48.749Z,94.99
2019-01-19T20:44:17.435Z,94.32
2019-01-19T20:46:45.847Z,95.31
2019-01-19T20:49:14.160Z,95.18
2019-01-19T20:51:42.492Z,96.21
2019-01-19T20:54:10.809Z,97.46
2019-01-19T20:56:39.649Z,98.39
2019-01-19T20:59:08.039Z,98.09
2019-01-19T21:01:36.370Z,98.04
2019-01-19T21:04:04.819Z,98.23
2019-01-19T21:06:33.149Z,98.90
2019-01-19T21:09:01.451Z,98.37
2019-01-19T21:11:29.783Z,98.24
2019-01-19T21:13:58.159Z,98.84
2019-01-19T21:16:26.486Z,97.96
2019-01-19T21:18:55.192Z,97.93
2019-01-19T21:21:23.519Z,98.49
2019-01-19T21:23:52.156Z,99.23
2019-01-19T21:26:20.853Z,98.57
2019-01-19T21:28:49.163Z,97.48
2019-01-19T21:31:17.580Z,96.50
2019-01-19T21:33:45.890Z,96.17
2019-01-19T21:36:14.303Z,98.15
2019-01-19T21:38:43.065Z,97.88
2019-01-19T21:41:11.748Z,97.48
2019-01-19T21:43:40.073Z,98.91
2019-01-19T21:46:08.380Z,99.92
2019-01-19T21:48:36.730Z,100.00
2019-01-19T21:51:05.894Z,100.00
2019-01-19T21:53:34.229Z,100.00
2019-01-19T21:56:02.545Z,100.00
2019-01-19T21:58:30.873Z,100.00
2019-01-19T22:00:59.234Z,100.00
2019-01-19T22:03:27.910Z,100.00
2019-01-19T22:05:56.295Z,100.00
2019-01-19T22:08:24.691Z,100.00
2019-01-19T22:10:53.101Z,100.00
2019-01-19T22:13:21.743Z,100.00
2019-01-19T22:15:50.141Z,100.00
2019-01-19T22:18:18.530Z,100.00
2019-01-19T22:20:47.192Z,100.00
2019-01-19T22:23:15.884Z,100.00
2019-01-19T22:25:44.581Z,100.00
2019-01-19T22:28:12.911Z,100.00
2019-01-19T22:30:41.217Z,100.00
2019-01-19T22:33:10.021Z,100.00
2019-01-19T22:35:39.012Z,100.00
2019-01-19T22:38:07.483Z,100.00
2019-01-19T22:40:35.799Z,100.00
2019-01-19T22:43:04.204Z,100.00
2019-01-19T22:45:32.524Z,100.00
2019-01-19T22:48:00.909Z,100.00
2019-01-19T22:50:29.218Z,100.00
2019-01-19T22:52:57.572Z,100.00
2019-01-19T22:55:26.277Z,100.00
2019-01-19T22:57:54.595Z,100.00
2019-01-19T23:00:57.310Z,100.00
2019-01-19T23:03:26.580Z,100.00
2019-01-19T23:05:54.964Z,100.00
2019-01-19T23:08:23.355Z,100.00
2019-01-19T23:10:51.753Z,100.00
2019-01-19T23:13:20.065Z,100.00
2019-01-19T23:15:48.485Z,100.00
2019-01-19T23:18:16.864Z,100.00
2019-01-19T23:20:45.197Z,100.00
2019-01-19T23:23:13.508Z,100.00
2019-01-19T23:25:41.840Z,100.00
2019-01-19T23:28:10.162Z,100.00
2019-01-19T23:30:38.495Z,100.00
2019-01-19T23:33:07.229Z,100.00
2019-01-19T23:35:35.567Z,100.00
2019-01-19T23:38:04.194Z,100.00
2019-01-19T23:40:32.678Z,100.00
2019-01-19T23:43:01.278Z,100.00
2019-01-19T23:45:29.613Z,100.00
2019-01-19T23:47:57.930Z,100.00
2019-01-19T23:50:26.377Z,100.00
2019-01-19T23:52:54.791Z,100.00
2019-01-19T23:55:23.197Z,100.00
2019-01-19T23:57:51.506Z,100.00
